If you wish to contribute or participate in the discussions about articles you are invited to join SKYbrary as a registered user

 Actions

Miyazaki Airport

From SKYbrary Wiki

RJFM
Airport
ICAO: RJFM – IATA: KMI
Summary
Name Miyazaki Airport
Region Asia and Pacific
Territory Japan JP.gif
Location Miyazaki, Kyushu
Serving Miyazaki
Elevation 5.791 m
19 ft5.791 m
Coordinates 31° 52' 38.00" N, 131° 26' 55.00" E
Runways
Designator Length Width Surface ROPS
9/27 2499 m8,198.819 ft
46 m150.919 ft
ASP yes/yes


METAR
Observation RJFM 192300Z 27006KT 9000 FEW015 18/14 Q1015
Station Miyazaki Airport
Date/Time 19 April 2019 23:00:00
Wind direction 270°
Wind speed 06 kts
Lowest cloud amount few clouds
Temperature 18°C
Dew point 14°C
Humidity 77%
QNH 1015 hPa
Weather condition n/a

Miyazaki Airport is an airport located 3.2 km1.728 nm
3,200 m
10,498.688 ft
south southeast of Miyazaki, a city in the Miyazaki Prefecture of Japan.

Climatology

Humid Sub-tropical climate (Köppen climate classification Cfa)

Maps

Terrain

Loading map...

Airport Layout

Loading map...



Accidents & Serious Incidents at or in vicinity of RJFM

None on SKYbrary